sensor_id;sensor_type;location;lat;lon;timestamp;temperature;humidity
10572;DHT22;5334;48.928;12.704;2023-10-19T00:00:56;7.90;99.90
10572;DHT22;5334;48.928;12.704;2023-10-19T00:03:23;7.90;99.90
10572;DHT22;5334;48.928;12.704;2023-10-19T00:05:49;7.90;99.90
10572;DHT22;5334;48.928;12.704;2023-10-19T00:08:15;7.90;99.90
10572;DHT22;5334;48.928;12.704;2023-10-19T00:10:52;8.00;99.90
10572;DHT22;5334;48.928;12.704;2023-10-19T00:13:28;8.00;99.90
10572;DHT22;5334;48.928;12.704;2023-10-19T00:15:56;8.10;99.90
10572;DHT22;5334;48.928;12.704;2023-10-19T00:18:24;8.10;99.90
10572;DHT22;5334;48.928;12.704;2023-10-19T00:20:55;8.10;99.90
10572;DHT22;5334;48.928;12.704;2023-10-19T00:23:44;8.10;99.90
10572;DHT22;5334;48.928;12.704;2023-10-19T00:26:13;8.00;99.90
10572;DHT22;5334;48.928;12.704;2023-10-19T00:28:51;8.00;99.90
10572;DHT22;5334;48.928;12.704;2023-10-19T00:31:22;8.10;99.90
10572;DHT22;5334;48.928;12.704;2023-10-19T00:33:48;8.10;99.90
10572;DHT22;5334;48.928;12.704;2023-10-19T00:36:17;8.10;99.90
10572;DHT22;5334;48.928;12.704;2023-10-19T00:38:46;8.10;99.90
10572;DHT22;5334;48.928;12.704;2023-10-19T00:41:17;8.10;99.90
10572;DHT22;5334;48.928;12.704;2023-10-19T00:43:48;8.10;99.90
10572;DHT22;5334;48.928;12.704;2023-10-19T00:46:23;8.10;99.90
10572;DHT22;5334;48.928;12.704;2023-10-19T00:49:01;8.10;99.90
10572;DHT22;5334;48.928;12.704;2023-10-19T00:51:38;8.10;99.90
10572;DHT22;5334;48.928;12.704;2023-10-19T00:54:27;8.10;99.90
10572;DHT22;5334;48.928;12.704;2023-10-19T00:57:02;8.00;99.90
10572;DHT22;5334;48.928;12.704;2023-10-19T00:59:32;8.00;99.90
10572;DHT22;5334;48.928;12.704;2023-10-19T01:02:08;8.00;99.90
10572;DHT22;5334;48.928;12.704;2023-10-19T01:04:51;8.00;99.90
10572;DHT22;5334;48.928;12.704;2023-10-19T01:07:29;8.10;99.90
10572;DHT22;5334;48.928;12.704;2023-10-19T01:09:56;8.10;99.90
10572;DHT22;5334;48.928;12.704;2023-10-19T01:12:26;8.10;99.90
10572;DHT22;5334;48.928;12.704;2023-10-19T01:17:55;8.20;99.90
10572;DHT22;5334;48.928;12.704;2023-10-19T01:20:28;8.20;99.90
10572;DHT22;5334;48.928;12.704;2023-10-19T01:23:02;8.30;99.90
10572;DHT22;5334;48.928;12.704;2023-10-19T01:25:44;8.30;99.90
10572;DHT22;5334;48.928;12.704;2023-10-19T01:28:23;8.30;99.90
10572;DHT22;5334;48.928;12.704;2023-10-19T01:31:09;8.30;99.90
10572;DHT22;5334;48.928;12.704;2023-10-19T01:33:48;8.20;99.90
10572;DHT22;5334;48.928;12.704;2023-10-19T01:36:14;8.10;99.90
10572;DHT22;5334;48.928;12.704;2023-10-19T01:38:42;8.10;99.90
10572;DHT22;5334;48.928;12.704;2023-10-19T01:41:09;8.10;99.90
10572;DHT22;5334;48.928;12.704;2023-10-19T01:43:44;8.00;99.90
10572;DHT22;5334;48.928;12.704;2023-10-19T01:46:15;8.00;99.90
10572;DHT22;5334;48.928;12.704;2023-10-19T01:48:48;8.00;99.90
10572;DHT22;5334;48.928;12.704;2023-10-19T01:51:21;8.00;99.90
10572;DHT22;5334;48.928;12.704;2023-10-19T01:53:48;7.90;99.90
10572;DHT22;5334;48.928;12.704;2023-10-19T01:56:15;7.90;99.90
10572;DHT22;5334;48.928;12.704;2023-10-19T01:58:48;7.90;99.90
10572;DHT22;5334;48.928;12.704;2023-10-19T02:01:15;7.90;99.90
10572;DHT22;5334;48.928;12.704;2023-10-19T02:04:02;7.90;99.90
10572;DHT22;5334;48.928;12.704;2023-10-19T02:06:33;8.00;99.90
10572;DHT22;5334;48.928;12.704;2023-10-19T02:09:01;8.00;99.90
10572;DHT22;5334;48.928;12.704;2023-10-19T02:11:35;8.00;99.90
10572;DHT22;5334;48.928;12.704;2023-10-19T02:14:03;8.00;99.90
10572;DHT22;5334;48.928;12.704;2023-10-19T02:16:43;8.00;99.90
10572;DHT22;5334;48.928;12.704;2023-10-19T02:19:11;8.00;99.90
10572;DHT22;5334;48.928;12.704;2023-10-19T02:21:36;8.00;99.90
10572;DHT22;5334;48.928;12.704;2023-10-19T02:24:09;8.10;99.90
10572;DHT22;5334;48.928;12.704;2023-10-19T02:26:35;8.10;99.90
10572;DHT22;5334;48.928;12.704;2023-10-19T02:29:03;8.20;99.90
10572;DHT22;5334;48.928;12.704;2023-10-19T02:31:34;8.20;99.90
10572;DHT22;5334;48.928;12.704;2023-10-19T02:34:03;8.20;99.90
10572;DHT22;5334;48.928;12.704;2023-10-19T02:36:30;8.20;99.90
10572;DHT22;5334;48.928;12.704;2023-10-19T02:38:57;8.30;99.90
10572;DHT22;5334;48.928;12.704;2023-10-19T02:41:29;8.30;99.90
10572;DHT22;5334;48.928;12.704;2023-10-19T02:43:55;8.30;99.90
10572;DHT22;5334;48.928;12.704;2023-10-19T02:46:32;8.30;99.90
10572;DHT22;5334;48.928;12.704;2023-10-19T02:49:05;8.40;99.90
10572;DHT22;5334;48.928;12.704;2023-10-19T02:51:36;8.30;99.90
10572;DHT22;5334;48.928;12.704;2023-10-19T02:54:02;8.30;99.90
10572;DHT22;5334;48.928;12.704;2023-10-19T02:56:28;8.30;99.90
10572;DHT22;5334;48.928;12.704;2023-10-19T02:58:57;8.30;99.90
10572;DHT22;5334;48.928;12.704;2023-10-19T03:01:33;8.30;99.90
10572;DHT22;5334;48.928;12.704;2023-10-19T03:04:00;8.30;99.90
10572;DHT22;5334;48.928;12.704;2023-10-19T03:06:28;8.20;99.90
10572;DHT22;5334;48.928;12.704;2023-10-19T03:09:05;8.20;99.90
10572;DHT22;5334;48.928;12.704;2023-10-19T03:11:40;8.10;99.90
10572;DHT22;5334;48.928;12.704;2023-10-19T03:14:09;8.10;99.90
10572;DHT22;5334;48.928;12.704;2023-10-19T03:16:37;8.10;99.90
10572;DHT22;5334;48.928;12.704;2023-10-19T03:19:06;8.10;99.90
10572;DHT22;5334;48.928;12.704;2023-10-19T03:21:33;8.10;99.90
10572;DHT22;5334;48.928;12.704;2023-10-19T03:24:07;8.10;99.90
10572;DHT22;5334;48.928;12.704;2023-10-19T03:26:38;8.10;99.90
10572;DHT22;5334;48.928;12.704;2023-10-19T03:29:05;8.20;99.90
10572;DHT22;5334;48.928;12.704;2023-10-19T03:31:38;8.20;99.90
10572;DHT22;5334;48.928;12.704;2023-10-19T03:34:10;8.20;99.90
10572;DHT22;5334;48.928;12.704;2023-10-19T03:36:38;8.20;99.90
10572;DHT22;5334;48.928;12.704;2023-10-19T03:39:04;8.30;99.90
10572;DHT22;5334;48.928;12.704;2023-10-19T03:41:39;8.30;99.90
10572;DHT22;5334;48.928;12.704;2023-10-19T03:44:08;8.30;99.90
10572;DHT22;5334;48.928;12.704;2023-10-19T03:46:53;8.30;99.90
10572;DHT22;5334;48.928;12.704;2023-10-19T03:49:20;8.30;99.90
10572;DHT22;5334;48.928;12.704;2023-10-19T03:51:47;8.40;99.90
10572;DHT22;5334;48.928;12.704;2023-10-19T03:54:39;8.40;99.90
10572;DHT22;5334;48.928;12.704;2023-10-19T03:57:08;8.30;99.90
10572;DHT22;5334;48.928;12.704;2023-10-19T03:59:55;8.30;99.90
10572;DHT22;5334;48.928;12.704;2023-10-19T04:02:28;8.30;99.90
10572;DHT22;5334;48.928;12.704;2023-10-19T04:05:03;8.30;99.90
10572;DHT22;5334;48.928;12.704;2023-10-19T04:07:29;8.30;99.90
10572;DHT22;5334;48.928;12.704;2023-10-19T04:09:57;8.30;99.90
10572;DHT22;5334;48.928;12.704;2023-10-19T04:12:29;8.30;99.90
10572;DHT22;5334;48.928;12.704;2023-10-19T04:15:03;8.40;99.90
10572;DHT22;5334;48.928;12.704;2023-10-19T04:17:37;8.40;99.90
10572;DHT22;5334;48.928;12.704;2023-10-19T04:20:09;8.40;99.90
10572;DHT22;5334;48.928;12.704;2023-10-19T04:22:55;8.40;99.90
10572;DHT22;5334;48.928;12.704;2023-10-19T04:25:22;8.40;99.90
10572;DHT22;5334;48.928;12.704;2023-10-19T04:27:51;8.30;99.90
10572;DHT22;5334;48.928;12.704;2023-10-19T04:30:17;8.30;99.90
10572;DHT22;5334;48.928;12.704;2023-10-19T04:32:53;8.20;99.90
10572;DHT22;5334;48.928;12.704;2023-10-19T04:35:21;8.00;99.90
10572;DHT22;5334;48.928;12.704;2023-10-19T04:37:53;8.00;99.90
10572;DHT22;5334;48.928;12.704;2023-10-19T04:40:20;7.90;99.90
10572;DHT22;5334;48.928;12.704;2023-10-19T04:42:47;7.90;99.90
10572;DHT22;5334;48.928;12.704;2023-10-19T04:45:13;7.90;99.90
10572;DHT22;5334;48.928;12.704;2023-10-19T04:47:39;7.90;99.90
10572;DHT22;5334;48.928;12.704;2023-10-19T04:50:06;7.90;99.90
10572;DHT22;5334;48.928;12.704;2023-10-19T04:52:32;7.90;99.90
10572;DHT22;5334;48.928;12.704;2023-10-19T04:54:59;7.90;99.90
10572;DHT22;5334;48.928;12.704;2023-10-19T04:57:25;7.90;99.90
10572;DHT22;5334;48.928;12.704;2023-10-19T04:59:54;7.90;99.90
10572;DHT22;5334;48.928;12.704;2023-10-19T05:02:20;7.90;99.90
10572;DHT22;5334;48.928;12.704;2023-10-19T05:04:46;8.00;99.90
10572;DHT22;5334;48.928;12.704;2023-10-19T05:07:12;8.00;99.90
10572;DHT22;5334;48.928;12.704;2023-10-19T05:09:40;8.00;99.90
10572;DHT22;5334;48.928;12.704;2023-10-19T05:12:09;8.10;99.90
10572;DHT22;5334;48.928;12.704;2023-10-19T05:14:38;8.10;99.90
10572;DHT22;5334;48.928;12.704;2023-10-19T05:17:07;8.20;99.90
10572;DHT22;5334;48.928;12.704;2023-10-19T05:19:35;8.20;99.90
10572;DHT22;5334;48.928;12.704;2023-10-19T05:22:04;8.20;99.90
10572;DHT22;5334;48.928;12.704;2023-10-19T05:24:31;8.20;99.90
10572;DHT22;5334;48.928;12.704;2023-10-19T05:26:58;8.20;99.90
10572;DHT22;5334;48.928;12.704;2023-10-19T05:29:24;8.20;99.90
10572;DHT22;5334;48.928;12.704;2023-10-19T05:31:53;8.20;99.90
10572;DHT22;5334;48.928;12.704;2023-10-19T05:34:22;8.20;99.90
10572;DHT22;5334;48.928;12.704;2023-10-19T05:36:49;8.10;99.90
10572;DHT22;5334;48.928;12.704;2023-10-19T05:39:15;8.10;99.90
10572;DHT22;5334;48.928;12.704;2023-10-19T05:41:41;8.10;99.90
10572;DHT22;5334;48.928;12.704;2023-10-19T05:44:07;8.10;99.90
10572;DHT22;5334;48.928;12.704;2023-10-19T05:46:34;8.10;99.90
10572;DHT22;5334;48.928;12.704;2023-10-19T05:49:00;8.10;99.90
10572;DHT22;5334;48.928;12.704;2023-10-19T05:51:29;8.10;99.90
10572;DHT22;5334;48.928;12.704;2023-10-19T05:53:55;8.20;99.90
10572;DHT22;5334;48.928;12.704;2023-10-19T05:56:27;8.20;99.90
10572;DHT22;5334;48.928;12.704;2023-10-19T05:58:53;8.20;99.90
10572;DHT22;5334;48.928;12.704;2023-10-19T06:01:19;8.20;99.90
10572;DHT22;5334;48.928;12.704;2023-10-19T06:03:45;8.20;99.90
10572;DHT22;5334;48.928;12.704;2023-10-19T06:06:11;8.30;99.90
10572;DHT22;5334;48.928;12.704;2023-10-19T06:08:39;8.30;99.90
10572;DHT22;5334;48.928;12.704;2023-10-19T06:11:05;8.30;99.90
10572;DHT22;5334;48.928;12.704;2023-10-19T06:13:32;8.30;99.90
10572;DHT22;5334;48.928;12.704;2023-10-19T06:15:57;8.30;99.90
10572;DHT22;5334;48.928;12.704;2023-10-19T06:18:23;8.40;99.90
10572;DHT22;5334;48.928;12.704;2023-10-19T06:20:49;8.40;99.90
10572;DHT22;5334;48.928;12.704;2023-10-19T06:23:17;8.50;99.90
10572;DHT22;5334;48.928;12.704;2023-10-19T06:25:43;8.50;99.90
10572;DHT22;5334;48.928;12.704;2023-10-19T06:28:09;8.50;99.90
10572;DHT22;5334;48.928;12.704;2023-10-19T06:30:37;8.50;99.90
10572;DHT22;5334;48.928;12.704;2023-10-19T06:33:03;8.50;99.90
10572;DHT22;5334;48.928;12.704;2023-10-19T06:35:30;8.60;99.90
10572;DHT22;5334;48.928;12.704;2023-10-19T06:38:02;8.70;99.90
10572;DHT22;5334;48.928;12.704;2023-10-19T06:40:30;8.70;99.90
10572;DHT22;5334;48.928;12.704;2023-10-19T06:42:57;8.70;99.90
10572;DHT22;5334;48.928;12.704;2023-10-19T06:45:24;8.80;99.90
10572;DHT22;5334;48.928;12.704;2023-10-19T06:47:55;8.80;99.90
10572;DHT22;5334;48.928;12.704;2023-10-19T06:50:23;8.90;99.90
10572;DHT22;5334;48.928;12.704;2023-10-19T06:52:49;8.90;99.90
10572;DHT22;5334;48.928;12.704;2023-10-19T06:55:16;8.90;99.90
10572;DHT22;5334;48.928;12.704;2023-10-19T06:57:46;9.00;99.90
10572;DHT22;5334;48.928;12.704;2023-10-19T07:00:17;9.10;99.90
10572;DHT22;5334;48.928;12.704;2023-10-19T07:02:48;9.30;99.90
10572;DHT22;5334;48.928;12.704;2023-10-19T07:05:15;9.60;99.90
10572;DHT22;5334;48.928;12.704;2023-10-19T07:07:46;9.90;99.90
10572;DHT22;5334;48.928;12.704;2023-10-19T07:10:13;10.20;99.90
10572;DHT22;5334;48.928;12.704;2023-10-19T07:12:40;10.60;99.90
10572;DHT22;5334;48.928;12.704;2023-10-19T07:15:10;10.60;99.90
10572;DHT22;5334;48.928;12.704;2023-10-19T07:17:43;10.30;99.90
10572;DHT22;5334;48.928;12.704;2023-10-19T07:20:11;10.10;99.90
10572;DHT22;5334;48.928;12.704;2023-10-19T07:22:59;9.90;99.90
10572;DHT22;5334;48.928;12.704;2023-10-19T07:25:43;9.70;99.90
10572;DHT22;5334;48.928;12.704;2023-10-19T07:28:10;9.70;99.90
10572;DHT22;5334;48.928;12.704;2023-10-19T07:30:37;9.50;99.90
10572;DHT22;5334;48.928;12.704;2023-10-19T07:33:03;9.50;99.90
10572;DHT22;5334;48.928;12.704;2023-10-19T07:35:34;9.70;99.90
10572;DHT22;5334;48.928;12.704;2023-10-19T07:38:00;9.90;99.90
10572;DHT22;5334;48.928;12.704;2023-10-19T07:40:27;10.10;99.90
10572;DHT22;5334;48.928;12.704;2023-10-19T07:42:53;10.20;99.90
10572;DHT22;5334;48.928;12.704;2023-10-19T07:45:20;10.30;99.90
10572;DHT22;5334;48.928;12.704;2023-10-19T07:47:47;10.20;99.90
10572;DHT22;5334;48.928;12.704;2023-10-19T07:50:13;10.30;99.90
10572;DHT22;5334;48.928;12.704;2023-10-19T07:52:45;10.30;99.90
10572;DHT22;5334;48.928;12.704;2023-10-19T07:55:15;10.20;99.90
10572;DHT22;5334;48.928;12.704;2023-10-19T07:57:42;10.40;99.90
10572;DHT22;5334;48.928;12.704;2023-10-19T08:00:09;10.50;99.90
10572;DHT22;5334;48.928;12.704;2023-10-19T08:02:38;10.70;99.90
10572;DHT22;5334;48.928;12.704;2023-10-19T08:05:09;11.00;99.90
10572;DHT22;5334;48.928;12.704;2023-10-19T08:07:37;11.30;99.90
10572;DHT22;5334;48.928;12.704;2023-10-19T08:10:06;11.70;99.90
10572;DHT22;5334;48.928;12.704;2023-10-19T08:12:35;11.80;99.90
10572;DHT22;5334;48.928;12.704;2023-10-19T08:15:02;12.00;99.90
10572;DHT22;5334;48.928;12.704;2023-10-19T08:17:29;12.40;99.90
10572;DHT22;5334;48.928;12.704;2023-10-19T08:19:54;12.60;99.90
10572;DHT22;5334;48.928;12.704;2023-10-19T08:22:21;12.40;99.90
10572;DHT22;5334;48.928;12.704;2023-10-19T08:24:46;12.00;99.90
10572;DHT22;5334;48.928;12.704;2023-10-19T08:27:13;11.70;99.90
10572;DHT22;5334;48.928;12.704;2023-10-19T08:29:39;11.40;99.90
10572;DHT22;5334;48.928;12.704;2023-10-19T08:32:05;11.40;99.90
10572;DHT22;5334;48.928;12.704;2023-10-19T08:34:35;11.30;99.90
10572;DHT22;5334;48.928;12.704;2023-10-19T08:37:02;11.30;99.90
10572;DHT22;5334;48.928;12.704;2023-10-19T08:39:29;11.50;99.90
10572;DHT22;5334;48.928;12.704;2023-10-19T08:42:05;11.60;99.90
10572;DHT22;5334;48.928;12.704;2023-10-19T08:44:32;11.60;99.90
10572;DHT22;5334;48.928;12.704;2023-10-19T08:46:58;11.60;99.90
10572;DHT22;5334;48.928;12.704;2023-10-19T08:49:25;11.60;99.90
10572;DHT22;5334;48.928;12.704;2023-10-19T08:51:54;11.70;99.90
10572;DHT22;5334;48.928;12.704;2023-10-19T08:54:21;12.10;99.90
10572;DHT22;5334;48.928;12.704;2023-10-19T08:56:47;12.20;99.90
10572;DHT22;5334;48.928;12.704;2023-10-19T08:59:13;12.10;99.90
10572;DHT22;5334;48.928;12.704;2023-10-19T09:01:42;12.00;99.90
10572;DHT22;5334;48.928;12.704;2023-10-19T09:04:10;12.00;99.90
10572;DHT22;5334;48.928;12.704;2023-10-19T09:06:37;12.10;99.90
10572;DHT22;5334;48.928;12.704;2023-10-19T09:09:13;12.10;99.90
10572;DHT22;5334;48.928;12.704;2023-10-19T09:11:48;12.30;99.90
10572;DHT22;5334;48.928;12.704;2023-10-19T09:14:15;12.60;99.90
10572;DHT22;5334;48.928;12.704;2023-10-19T09:16:56;12.80;99.90
10572;DHT22;5334;48.928;12.704;2023-10-19T09:22:08;12.70;99.90
10572;DHT22;5334;48.928;12.704;2023-10-19T09:24:42;12.60;99.90
10572;DHT22;5334;48.928;12.704;2023-10-19T09:27:08;12.60;99.90
10572;DHT22;5334;48.928;12.704;2023-10-19T09:29:34;12.60;99.90
10572;DHT22;5334;48.928;12.704;2023-10-19T09:32:00;12.80;99.90
10572;DHT22;5334;48.928;12.704;2023-10-19T09:34:29;13.00;99.90
10572;DHT22;5334;48.928;12.704;2023-10-19T09:37:02;13.30;99.90
10572;DHT22;5334;48.928;12.704;2023-10-19T09:39:29;13.40;99.90
10572;DHT22;5334;48.928;12.704;2023-10-19T09:42:09;13.30;99.90
10572;DHT22;5334;48.928;12.704;2023-10-19T09:44:46;13.40;99.90
10572;DHT22;5334;48.928;12.704;2023-10-19T09:47:29;13.40;99.90
10572;DHT22;5334;48.928;12.704;2023-10-19T09:49:57;13.40;99.90
10572;DHT22;5334;48.928;12.704;2023-10-19T09:52:23;13.40;99.90
10572;DHT22;5334;48.928;12.704;2023-10-19T09:55:51;13.50;99.90
10572;DHT22;5334;48.928;12.704;2023-10-19T09:57:56;13.50;99.90
10572;DHT22;5334;48.928;12.704;2023-10-19T10:00:24;13.40;99.90
10572;DHT22;5334;48.928;12.704;2023-10-19T10:02:51;13.40;99.90
10572;DHT22;5334;48.928;12.704;2023-10-19T10:10:50;13.20;99.90
10572;DHT22;5334;48.928;12.704;2023-10-19T10:15:58;13.00;99.90
10572;DHT22;5334;48.928;12.704;2023-10-19T10:18:24;13.00;99.90
10572;DHT22;5334;48.928;12.704;2023-10-19T10:23:43;12.90;99.90
10572;DHT22;5334;48.928;12.704;2023-10-19T10:26:13;12.80;99.90
10572;DHT22;5334;48.928;12.704;2023-10-19T10:28:40;12.70;99.90
10572;DHT22;5334;48.928;12.704;2023-10-19T10:31:10;12.70;99.90
10572;DHT22;5334;48.928;12.704;2023-10-19T10:33:43;12.80;99.90
10572;DHT22;5334;48.928;12.704;2023-10-19T10:36:16;12.90;99.90
10572;DHT22;5334;48.928;12.704;2023-10-19T10:38:43;12.90;99.90
10572;DHT22;5334;48.928;12.704;2023-10-19T10:41:09;12.90;99.90
10572;DHT22;5334;48.928;12.704;2023-10-19T10:43:51;13.00;99.90
10572;DHT22;5334;48.928;12.704;2023-10-19T10:46:21;13.10;99.90
10572;DHT22;5334;48.928;12.704;2023-10-19T10:48:47;13.20;99.90
10572;DHT22;5334;48.928;12.704;2023-10-19T10:51:22;13.20;99.90
10572;DHT22;5334;48.928;12.704;2023-10-19T10:53:50;13.20;99.90
10572;DHT22;5334;48.928;12.704;2023-10-19T10:56:17;13.10;99.90
10572;DHT22;5334;48.928;12.704;2023-10-19T10:58:44;13.10;99.90
10572;DHT22;5334;48.928;12.704;2023-10-19T11:01:10;13.10;99.90
10572;DHT22;5334;48.928;12.704;2023-10-19T11:03:37;13.10;99.90
10572;DHT22;5334;48.928;12.704;2023-10-19T11:06:07;13.20;99.90
10572;DHT22;5334;48.928;12.704;2023-10-19T11:11:06;13.30;99.90
10572;DHT22;5334;48.928;12.704;2023-10-19T11:13:32;13.40;99.90
10572;DHT22;5334;48.928;12.704;2023-10-19T11:16:00;13.40;99.90
10572;DHT22;5334;48.928;12.704;2023-10-19T11:18:35;13.40;99.90
10572;DHT22;5334;48.928;12.704;2023-10-19T11:21:03;13.60;99.90
10572;DHT22;5334;48.928;12.704;2023-10-19T11:23:41;13.50;99.90
10572;DHT22;5334;48.928;12.704;2023-10-19T11:26:09;13.50;99.90
10572;DHT22;5334;48.928;12.704;2023-10-19T11:28:36;13.50;99.90
10572;DHT22;5334;48.928;12.704;2023-10-19T11:31:23;13.50;99.90
10572;DHT22;5334;48.928;12.704;2023-10-19T11:33:50;13.60;99.90
10572;DHT22;5334;48.928;12.704;2023-10-19T11:36:17;13.50;99.90
10572;DHT22;5334;48.928;12.704;2023-10-19T11:38:45;13.40;99.90
10572;DHT22;5334;48.928;12.704;2023-10-19T11:41:11;13.30;99.90
10572;DHT22;5334;48.928;12.704;2023-10-19T11:43:39;13.30;99.90
10572;DHT22;5334;48.928;12.704;2023-10-19T11:46:05;13.30;99.90
10572;DHT22;5334;48.928;12.704;2023-10-19T11:48:36;13.30;99.90
10572;DHT22;5334;48.928;12.704;2023-10-19T11:51:04;13.40;99.90
10572;DHT22;5334;48.928;12.704;2023-10-19T11:53:35;13.40;99.90
10572;DHT22;5334;48.928;12.704;2023-10-19T11:56:03;13.40;99.90
10572;DHT22;5334;48.928;12.704;2023-10-19T11:58:35;13.40;99.90
10572;DHT22;5334;48.928;12.704;2023-10-19T12:01:03;13.40;99.90
10572;DHT22;5334;48.928;12.704;2023-10-19T12:03:34;13.40;99.90
10572;DHT22;5334;48.928;12.704;2023-10-19T12:06:05;13.30;99.90
10572;DHT22;5334;48.928;12.704;2023-10-19T12:08:35;13.30;99.90
10572;DHT22;5334;48.928;12.704;2023-10-19T12:11:02;13.30;99.90
10572;DHT22;5334;48.928;12.704;2023-10-19T12:13:30;13.30;99.90
10572;DHT22;5334;48.928;12.704;2023-10-19T12:15:57;13.40;99.90
10572;DHT22;5334;48.928;12.704;2023-10-19T12:18:24;13.40;99.90
10572;DHT22;5334;48.928;12.704;2023-10-19T12:20:51;13.50;99.90
10572;DHT22;5334;48.928;12.704;2023-10-19T12:23:22;13.60;99.90
10572;DHT22;5334;48.928;12.704;2023-10-19T12:25:49;13.60;99.90
10572;DHT22;5334;48.928;12.704;2023-10-19T12:28:14;13.60;99.90
10572;DHT22;5334;48.928;12.704;2023-10-19T12:30:41;13.60;99.90
10572;DHT22;5334;48.928;12.704;2023-10-19T12:33:07;13.70;99.90
10572;DHT22;5334;48.928;12.704;2023-10-19T12:35:42;13.80;99.90
10572;DHT22;5334;48.928;12.704;2023-10-19T12:38:13;13.80;99.90
10572;DHT22;5334;48.928;12.704;2023-10-19T12:40:46;13.80;99.90
10572;DHT22;5334;48.928;12.704;2023-10-19T12:43:13;13.70;99.90
10572;DHT22;5334;48.928;12.704;2023-10-19T12:45:39;13.80;99.90
10572;DHT22;5334;48.928;12.704;2023-10-19T12:48:06;13.70;99.90
10572;DHT22;5334;48.928;12.704;2023-10-19T12:50:34;13.70;99.90
10572;DHT22;5334;48.928;12.704;2023-10-19T12:53:00;13.60;99.90
10572;DHT22;5334;48.928;12.704;2023-10-19T12:55:26;13.60;99.90
10572;DHT22;5334;48.928;12.704;2023-10-19T12:57:53;13.60;99.90
10572;DHT22;5334;48.928;12.704;2023-10-19T13:00:19;13.70;99.90
10572;DHT22;5334;48.928;12.704;2023-10-19T13:03:11;13.70;99.90
10572;DHT22;5334;48.928;12.704;2023-10-19T13:05:42;13.70;99.90
10572;DHT22;5334;48.928;12.704;2023-10-19T13:08:11;13.70;99.90
10572;DHT22;5334;48.928;12.704;2023-10-19T13:10:39;13.60;99.90
10572;DHT22;5334;48.928;12.704;2023-10-19T13:13:09;13.70;99.90
10572;DHT22;5334;48.928;12.704;2023-10-19T13:15:42;13.60;99.90
10572;DHT22;5334;48.928;12.704;2023-10-19T13:18:10;13.60;99.90
10572;DHT22;5334;48.928;12.704;2023-10-19T13:20:37;13.60;99.90
10572;DHT22;5334;48.928;12.704;2023-10-19T13:23:08;13.70;99.90
10572;DHT22;5334;48.928;12.704;2023-10-19T13:25:38;13.70;99.90
10572;DHT22;5334;48.928;12.704;2023-10-19T13:28:09;13.70;99.90
10572;DHT22;5334;48.928;12.704;2023-10-19T13:30:37;13.70;99.90
10572;DHT22;5334;48.928;12.704;2023-10-19T13:33:07;13.60;99.90
10572;DHT22;5334;48.928;12.704;2023-10-19T13:35:40;13.60;99.90
10572;DHT22;5334;48.928;12.704;2023-10-19T13:38:08;13.50;99.90
10572;DHT22;5334;48.928;12.704;2023-10-19T13:40:38;13.50;99.90
10572;DHT22;5334;48.928;12.704;2023-10-19T13:43:05;13.40;99.90
10572;DHT22;5334;48.928;12.704;2023-10-19T13:45:36;13.50;99.90
10572;DHT22;5334;48.928;12.704;2023-10-19T13:48:06;13.50;99.90
10572;DHT22;5334;48.928;12.704;2023-10-19T13:52:59;13.40;99.90
10572;DHT22;5334;48.928;12.704;2023-10-19T13:55:29;13.40;99.90
10572;DHT22;5334;48.928;12.704;2023-10-19T13:57:55;13.40;99.90
10572;DHT22;5334;48.928;12.704;2023-10-19T14:00:22;13.50;99.90
10572;DHT22;5334;48.928;12.704;2023-10-19T14:03:06;13.50;99.90
10572;DHT22;5334;48.928;12.704;2023-10-19T14:05:36;13.50;99.90
10572;DHT22;5334;48.928;12.704;2023-10-19T14:08:04;13.40;99.90
10572;DHT22;5334;48.928;12.704;2023-10-19T14:10:30;13.40;99.90
10572;DHT22;5334;48.928;12.704;2023-10-19T14:12:58;13.40;99.90
10572;DHT22;5334;48.928;12.704;2023-10-19T14:15:24;13.40;99.90
10572;DHT22;5334;48.928;12.704;2023-10-19T14:17:56;13.50;99.90
10572;DHT22;5334;48.928;12.704;2023-10-19T14:20:24;13.60;99.90
10572;DHT22;5334;48.928;12.704;2023-10-19T14:22:50;13.70;99.90
10572;DHT22;5334;48.928;12.704;2023-10-19T14:25:16;13.80;99.90
10572;DHT22;5334;48.928;12.704;2023-10-19T14:27:46;14.00;99.90
10572;DHT22;5334;48.928;12.704;2023-10-19T14:30:15;14.40;99.90
10572;DHT22;5334;48.928;12.704;2023-10-19T14:32:50;14.70;99.90
10572;DHT22;5334;48.928;12.704;2023-10-19T14:35:18;14.70;99.90
10572;DHT22;5334;48.928;12.704;2023-10-19T14:37:46;14.70;99.90
10572;DHT22;5334;48.928;12.704;2023-10-19T14:40:16;14.60;99.90
10572;DHT22;5334;48.928;12.704;2023-10-19T14:42:42;14.40;99.90
10572;DHT22;5334;48.928;12.704;2023-10-19T14:45:10;14.10;99.90
10572;DHT22;5334;48.928;12.704;2023-10-19T14:47:42;13.90;99.90
10572;DHT22;5334;48.928;12.704;2023-10-19T14:50:11;13.80;99.90
10572;DHT22;5334;48.928;12.704;2023-10-19T14:52:44;13.70;99.90
10572;DHT22;5334;48.928;12.704;2023-10-19T14:55:10;13.60;99.90
10572;DHT22;5334;48.928;12.704;2023-10-19T14:57:39;13.60;99.90
10572;DHT22;5334;48.928;12.704;2023-10-19T15:00:06;13.60;99.90
10572;DHT22;5334;48.928;12.704;2023-10-19T15:02:50;13.60;99.90
10572;DHT22;5334;48.928;12.704;2023-10-19T15:05:17;13.60;99.90
10572;DHT22;5334;48.928;12.704;2023-10-19T15:07:45;13.60;99.90
10572;DHT22;5334;48.928;12.704;2023-10-19T15:10:11;13.60;99.90
10572;DHT22;5334;48.928;12.704;2023-10-19T15:12:40;13.50;99.90
10572;DHT22;5334;48.928;12.704;2023-10-19T15:15:07;13.50;99.90
10572;DHT22;5334;48.928;12.704;2023-10-19T15:17:37;13.50;99.90
10572;DHT22;5334;48.928;12.704;2023-10-19T15:20:06;13.50;99.90
10572;DHT22;5334;48.928;12.704;2023-10-19T15:22:32;13.50;99.90
10572;DHT22;5334;48.928;12.704;2023-10-19T15:24:58;13.40;99.90
10572;DHT22;5334;48.928;12.704;2023-10-19T15:27:24;13.40;99.90
10572;DHT22;5334;48.928;12.704;2023-10-19T15:29:50;13.40;99.90
10572;DHT22;5334;48.928;12.704;2023-10-19T15:32:16;13.40;99.90
10572;DHT22;5334;48.928;12.704;2023-10-19T15:34:42;13.40;99.90
10572;DHT22;5334;48.928;12.704;2023-10-19T15:37:08;13.30;99.90
10572;DHT22;5334;48.928;12.704;2023-10-19T15:39:34;13.40;99.90
10572;DHT22;5334;48.928;12.704;2023-10-19T15:42:00;13.30;99.90
10572;DHT22;5334;48.928;12.704;2023-10-19T15:44:26;13.30;99.90
10572;DHT22;5334;48.928;12.704;2023-10-19T15:46:52;13.30;99.90
10572;DHT22;5334;48.928;12.704;2023-10-19T15:49:18;13.20;99.90
10572;DHT22;5334;48.928;12.704;2023-10-19T15:51:45;13.20;99.90
10572;DHT22;5334;48.928;12.704;2023-10-19T15:54:11;13.20;99.90
10572;DHT22;5334;48.928;12.704;2023-10-19T15:56:37;13.20;99.90
10572;DHT22;5334;48.928;12.704;2023-10-19T15:59:03;13.10;99.90
10572;DHT22;5334;48.928;12.704;2023-10-19T16:01:30;13.10;99.90
10572;DHT22;5334;48.928;12.704;2023-10-19T16:03:56;13.00;99.90
10572;DHT22;5334;48.928;12.704;2023-10-19T16:06:22;12.90;99.90
10572;DHT22;5334;48.928;12.704;2023-10-19T16:08:48;12.90;99.90
10572;DHT22;5334;48.928;12.704;2023-10-19T16:11:13;12.90;99.90
10572;DHT22;5334;48.928;12.704;2023-10-19T16:13:39;12.80;99.90